sensor_id;sensor_type;location;lat;lon;timestamp;pressure;altitude;pressure_sealevel;temperature;humidity
46412;BME280;32113;42.012;24.870;2023-12-07T00:00:29;98677.38;;;8.34;78.28
46412;BME280;32113;42.012;24.870;2023-12-07T00:02:54;98677.31;;;8.35;77.59
46412;BME280;32113;42.012;24.870;2023-12-07T00:05:20;98673.00;;;8.44;77.93
46412;BME280;32113;42.012;24.870;2023-12-07T00:07:45;98680.63;;;8.50;77.74
46412;BME280;32113;42.012;24.870;2023-12-07T00:10:11;98677.25;;;8.46;76.95
46412;BME280;32113;42.012;24.870;2023-12-07T00:12:36;98682.41;;;8.41;76.95
46412;BME280;32113;42.012;24.870;2023-12-07T00:15:02;98679.88;;;8.37;76.64
46412;BME280;32113;42.012;24.870;2023-12-07T00:17:28;98687.59;;;8.32;76.68
46412;BME280;32113;42.012;24.870;2023-12-07T00:19:53;98682.50;;;8.31;77.06
46412;BME280;32113;42.012;24.870;2023-12-07T00:22:20;98682.47;;;8.34;76.86
46412;BME280;32113;42.012;24.870;2023-12-07T00:24:46;98677.38;;;8.29;77.45
46412;BME280;32113;42.012;24.870;2023-12-07T00:27:11;98684.19;;;8.30;76.66
46412;BME280;32113;42.012;24.870;2023-12-07T00:29:38;98679.13;;;8.22;77.53
46412;BME280;32113;42.012;24.870;2023-12-07T00:32:04;98680.81;;;8.23;77.50
46412;BME280;32113;42.012;24.870;2023-12-07T00:34:29;98668.97;;;8.11;78.05
46412;BME280;32113;42.012;24.870;2023-12-07T00:36:55;98672.44;;;7.98;78.76
46412;BME280;32113;42.012;24.870;2023-12-07T00:39:20;98670.00;;;7.82;79.97
46412;BME280;32113;42.012;24.870;2023-12-07T00:41:46;98673.41;;;7.84;80.42
46412;BME280;32113;42.012;24.870;2023-12-07T00:44:13;98669.06;;;7.96;80.62
46412;BME280;32113;42.012;24.870;2023-12-07T00:46:39;98673.31;;;8.00;80.18
46412;BME280;32113;42.012;24.870;2023-12-07T00:49:05;98679.25;;;8.04;80.13
46412;BME280;32113;42.012;24.870;2023-12-07T00:51:30;98675.00;;;8.01;79.85
46412;BME280;32113;42.012;24.870;2023-12-07T00:53:56;98670.75;;;8.01;79.69
46412;BME280;32113;42.012;24.870;2023-12-07T00:56:21;98676.69;;;8.00;79.48
46412;BME280;32113;42.012;24.870;2023-12-07T00:58:47;98673.28;;;8.03;78.57
46412;BME280;32113;42.012;24.870;2023-12-07T01:01:12;98668.25;;;7.92;79.17
46412;BME280;32113;42.012;24.870;2023-12-07T01:03:38;98670.81;;;7.87;80.05
46412;BME280;32113;42.012;24.870;2023-12-07T01:06:06;98675.06;;;7.90;80.67
46412;BME280;32113;42.012;24.870;2023-12-07T01:08:31;98665.66;;;8.00;80.50
46412;BME280;32113;42.012;24.870;2023-12-07T01:10:57;98663.09;;;8.00;80.26
46412;BME280;32113;42.012;24.870;2023-12-07T01:13:22;98661.47;;;7.83;80.45
46412;BME280;32113;42.012;24.870;2023-12-07T01:15:49;98667.50;;;7.71;81.08
46412;BME280;32113;42.012;24.870;2023-12-07T01:18:15;98659.78;;;7.82;82.08
46412;BME280;32113;42.012;24.870;2023-12-07T01:20:40;98664.84;;;7.88;81.79
46412;BME280;32113;42.012;24.870;2023-12-07T01:23:06;98662.22;;;8.01;81.54
46412;BME280;32113;42.012;24.870;2023-12-07T01:25:34;98654.50;;;8.07;81.30
46412;BME280;32113;42.012;24.870;2023-12-07T01:27:59;98656.13;;;8.19;80.95
46412;BME280;32113;42.012;24.870;2023-12-07T01:30:25;98664.66;;;8.21;80.23
46412;BME280;32113;42.012;24.870;2023-12-07T01:32:50;98661.22;;;8.25;79.81
46412;BME280;32113;42.012;24.870;2023-12-07T01:35:16;98658.63;;;8.32;79.63
46412;BME280;32113;42.012;24.870;2023-12-07T01:37:41;98665.41;;;8.37;78.99
46412;BME280;32113;42.012;24.870;2023-12-07T01:40:07;98658.56;;;8.39;79.11
46412;BME280;32113;42.012;24.870;2023-12-07T01:42:39;98657.69;;;8.42;78.78
46412;BME280;32113;42.012;24.870;2023-12-07T01:45:05;98659.38;;;8.43;78.13
46412;BME280;32113;42.012;24.870;2023-12-07T01:47:31;98659.34;;;8.45;78.07
46412;BME280;32113;42.012;24.870;2023-12-07T01:49:57;98668.72;;;8.47;78.52
46412;BME280;32113;42.012;24.870;2023-12-07T01:52:25;98660.22;;;8.45;78.76
46412;BME280;32113;42.012;24.870;2023-12-07T01:54:52;98656.88;;;8.37;78.90
46412;BME280;32113;42.012;24.870;2023-12-07T01:57:18;98661.91;;;8.46;79.01
46412;BME280;32113;42.012;24.870;2023-12-07T01:59:44;98657.63;;;8.54;78.61
46412;BME280;32113;42.012;24.870;2023-12-07T02:02:10;98661.03;;;8.52;78.79
46412;BME280;32113;42.012;24.870;2023-12-07T02:04:36;98665.28;;;8.54;78.60
46412;BME280;32113;42.012;24.870;2023-12-07T02:07:02;98662.66;;;8.62;78.30
46412;BME280;32113;42.012;24.870;2023-12-07T02:09:29;98663.59;;;8.55;78.43
46412;BME280;32113;42.012;24.870;2023-12-07T02:11:54;98668.66;;;8.60;77.71
46412;BME280;32113;42.012;24.870;2023-12-07T02:14:20;98666.91;;;8.63;77.13
46412;BME280;32113;42.012;24.870;2023-12-07T02:16:52;98665.28;;;8.54;78.21
46412;BME280;32113;42.012;24.870;2023-12-07T02:22:17;98660.09;;;8.64;77.77
46412;BME280;32113;42.012;24.870;2023-12-07T02:24:49;98661.78;;;8.65;77.89
46412;BME280;32113;42.012;24.870;2023-12-07T02:27:36;98660.97;;;8.60;77.66
46412;BME280;32113;42.012;24.870;2023-12-07T02:30:02;98662.66;;;8.62;78.21
46412;BME280;32113;42.012;24.870;2023-12-07T02:49:18;98663.66;;;8.41;77.85
46412;BME280;32113;42.012;24.870;2023-12-07T02:51:43;98665.59;;;8.11;78.32
46412;BME280;32113;42.012;24.870;2023-12-07T02:54:09;98666.41;;;8.11;79.20
46412;BME280;32113;42.012;24.870;2023-12-07T02:56:34;98662.16;;;8.10;79.20
46412;BME280;32113;42.012;24.870;2023-12-07T02:59:00;98661.25;;;8.21;78.26
46412;BME280;32113;42.012;24.870;2023-12-07T03:01:25;98657.91;;;8.11;77.97
46412;BME280;32113;42.012;24.870;2023-12-07T03:03:51;98659.59;;;8.12;78.57
46412;BME280;32113;42.012;24.870;2023-12-07T03:06:16;98660.47;;;8.09;77.94
46412;BME280;32113;42.012;24.870;2023-12-07T03:08:42;98657.09;;;8.06;78.45
46412;BME280;32113;42.012;24.870;2023-12-07T03:11:07;98652.84;;;8.03;78.41
46412;BME280;32113;42.012;24.870;2023-12-07T03:13:33;98652.03;;;7.98;78.76
46412;BME280;32113;42.012;24.870;2023-12-07T03:15:58;98662.28;;;7.92;79.24
46412;BME280;32113;42.012;24.870;2023-12-07T03:18:24;98660.59;;;7.87;79.84
46412;BME280;32113;42.012;24.870;2023-12-07T03:20:50;98652.91;;;7.94;79.37
46412;BME280;32113;42.012;24.870;2023-12-07T03:23:15;98652.00;;;8.02;78.99
46412;BME280;32113;42.012;24.870;2023-12-07T03:25:41;98653.69;;;8.04;79.09
46412;BME280;32113;42.012;24.870;2023-12-07T03:28:07;98657.97;;;8.00;78.55
46412;BME280;32113;42.012;24.870;2023-12-07T03:30:32;98656.25;;;8.00;78.71
46412;BME280;32113;42.012;24.870;2023-12-07T03:32:58;98660.47;;;8.09;78.62
46412;BME280;32113;42.012;24.870;2023-12-07T03:35:23;98658.75;;;8.10;78.79
46412;BME280;32113;42.012;24.870;2023-12-07T03:37:49;98650.19;;;8.17;78.26
46412;BME280;32113;42.012;24.870;2023-12-07T03:40:14;98651.88;;;8.20;77.92
46412;BME280;32113;42.012;24.870;2023-12-07T03:42:40;98644.25;;;8.15;77.82
46412;BME280;32113;42.012;24.870;2023-12-07T03:45:06;98644.34;;;8.06;78.47
46412;BME280;32113;42.012;24.870;2023-12-07T03:47:32;98641.72;;;8.12;77.96
46412;BME280;32113;42.012;24.870;2023-12-07T03:49:57;98645.06;;;8.20;77.56
46412;BME280;32113;42.012;24.870;2023-12-07T03:52:23;98644.19;;;8.24;77.61
46412;BME280;32113;42.012;24.870;2023-12-07T03:54:48;98643.34;;;8.25;76.91
46412;BME280;32113;42.012;24.870;2023-12-07T03:57:14;98641.59;;;8.26;76.34
46412;BME280;32113;42.012;24.870;2023-12-07T03:59:39;98645.16;;;8.08;77.58
46412;BME280;32113;42.012;24.870;2023-12-07T04:02:05;98643.47;;;8.04;77.01
46412;BME280;32113;42.012;24.870;2023-12-07T04:04:30;98642.72;;;7.87;78.12
46412;BME280;32113;42.012;24.870;2023-12-07T04:06:56;98640.97;;;7.96;77.86
46412;BME280;32113;42.012;24.870;2023-12-07T04:09:21;98635.88;;;7.91;78.91
46412;BME280;32113;42.012;24.870;2023-12-07T04:11:47;98636.78;;;7.81;78.24
46412;BME280;32113;42.012;24.870;2023-12-07T04:14:12;98647.09;;;7.67;79.42
46412;BME280;32113;42.012;24.870;2023-12-07T04:16:38;98641.19;;;7.55;79.76
46412;BME280;32113;42.012;24.870;2023-12-07T04:19:03;98641.16;;;7.58;80.31
46412;BME280;32113;42.012;24.870;2023-12-07T04:21:29;98643.69;;;7.69;80.03
46412;BME280;32113;42.012;24.870;2023-12-07T04:23:54;98643.72;;;7.61;80.00
46412;BME280;32113;42.012;24.870;2023-12-07T04:26:20;98648.03;;;7.47;80.87
46412;BME280;32113;42.012;24.870;2023-12-07T04:28:45;98648.00;;;7.48;80.87
46412;BME280;32113;42.012;24.870;2023-12-07T04:31:11;98660.78;;;7.52;80.39
46412;BME280;32113;42.012;24.870;2023-12-07T04:33:36;98659.16;;;7.33;81.51
46412;BME280;32113;42.012;24.870;2023-12-07T04:36:02;98654.88;;;7.35;81.70
46412;BME280;32113;42.012;24.870;2023-12-07T04:38:29;98665.13;;;7.17;82.74
46412;BME280;32113;42.012;24.870;2023-12-07T04:40:55;98657.47;;;7.26;83.17
46412;BME280;32113;42.012;24.870;2023-12-07T04:43:20;98659.97;;;7.39;82.82
46412;BME280;32113;42.012;24.870;2023-12-07T04:45:46;98653.16;;;7.41;81.64
46412;BME280;32113;42.012;24.870;2023-12-07T04:48:11;98654.88;;;7.35;81.00
46412;BME280;32113;42.012;24.870;2023-12-07T04:50:37;98655.72;;;7.39;81.15
46412;BME280;32113;42.012;24.870;2023-12-07T04:53:02;98649.75;;;7.45;81.13
46412;BME280;32113;42.012;24.870;2023-12-07T04:55:28;98652.28;;;7.43;80.23
46412;BME280;32113;42.012;24.870;2023-12-07T04:57:53;98648.91;;;7.38;81.14
46412;BME280;32113;42.012;24.870;2023-12-07T05:00:19;98653.16;;;7.39;80.97
46412;BME280;32113;42.012;24.870;2023-12-07T05:02:45;98660.81;;;7.47;80.45
46412;BME280;32113;42.012;24.870;2023-12-07T05:05:11;98659.09;;;7.47;80.26
46412;BME280;32113;42.012;24.870;2023-12-07T05:07:36;98662.50;;;7.43;81.09
46412;BME280;32113;42.012;24.870;2023-12-07T05:10:02;98659.91;;;7.54;80.68
46412;BME280;32113;42.012;24.870;2023-12-07T05:12:28;98661.59;;;7.61;80.59
46412;BME280;32113;42.012;24.870;2023-12-07T05:14:53;98670.94;;;7.66;80.03
46412;BME280;32113;42.012;24.870;2023-12-07T05:17:19;98672.59;;;7.73;80.08
46412;BME280;32113;42.012;24.870;2023-12-07T05:19:44;98674.28;;;7.72;80.37
46412;BME280;32113;42.012;24.870;2023-12-07T05:22:10;98664.94;;;7.78;80.26
46412;BME280;32113;42.012;24.870;2023-12-07T05:24:36;98675.94;;;7.87;80.16
46412;BME280;32113;42.012;24.870;2023-12-07T05:27:02;98684.44;;;7.89;80.05
46412;BME280;32113;42.012;24.870;2023-12-07T05:29:29;98675.91;;;7.91;79.17
46412;BME280;32113;42.012;24.870;2023-12-07T05:31:54;98684.41;;;7.97;79.79
46412;BME280;32113;42.012;24.870;2023-12-07T05:34:20;98683.53;;;8.01;79.22
46412;BME280;32113;42.012;24.870;2023-12-07T05:36:45;98691.97;;;8.10;78.90
46412;BME280;32113;42.012;24.870;2023-12-07T05:39:11;98687.75;;;8.06;78.70
46412;BME280;32113;42.012;24.870;2023-12-07T05:41:38;98696.25;;;8.09;78.26
46412;BME280;32113;42.012;24.870;2023-12-07T05:44:03;98700.50;;;8.15;77.53
46412;BME280;32113;42.012;24.870;2023-12-07T05:46:29;98706.47;;;8.09;77.80
46412;BME280;32113;42.012;24.870;2023-12-07T05:48:55;98708.16;;;8.09;78.74
46412;BME280;32113;42.012;24.870;2023-12-07T05:51:20;98711.56;;;8.12;78.37
46412;BME280;32113;42.012;24.870;2023-12-07T05:53:46;98714.97;;;8.10;78.09
46412;BME280;32113;42.012;24.870;2023-12-07T05:56:11;98718.38;;;8.12;77.42
46412;BME280;32113;42.012;24.870;2023-12-07T05:58:37;98718.44;;;8.04;78.17
46412;BME280;32113;42.012;24.870;2023-12-07T06:01:03;98728.66;;;8.06;78.23
46412;BME280;32113;42.012;24.870;2023-12-07T06:03:29;98734.53;;;8.15;77.36
46412;BME280;32113;42.012;24.870;2023-12-07T06:05:55;98731.97;;;8.17;78.07
46412;BME280;32113;42.012;24.870;2023-12-07T06:08:21;98731.13;;;8.20;77.49
46412;BME280;32113;42.012;24.870;2023-12-07T06:10:47;98735.38;;;8.19;77.37
46412;BME280;32113;42.012;24.870;2023-12-07T06:13:13;98735.34;;;8.22;77.67
46412;BME280;32113;42.012;24.870;2023-12-07T06:15:39;98738.81;;;8.13;77.35
46412;BME280;32113;42.012;24.870;2023-12-07T06:18:05;98731.97;;;8.19;77.34
46412;BME280;32113;42.012;24.870;2023-12-07T06:20:31;98734.53;;;8.19;77.63
46412;BME280;32113;42.012;24.870;2023-12-07T06:22:56;98734.53;;;8.19;78.07
46412;BME280;32113;42.012;24.870;2023-12-07T06:25:23;98734.47;;;8.28;78.01
46412;BME280;32113;42.012;24.870;2023-12-07T06:27:48;98740.47;;;8.22;78.28
46412;BME280;32113;42.012;24.870;2023-12-07T06:30:14;98749.81;;;8.26;77.80
46412;BME280;32113;42.012;24.870;2023-12-07T06:32:40;98742.97;;;8.30;78.10
46412;BME280;32113;42.012;24.870;2023-12-07T06:35:05;98750.63;;;8.35;78.74
46412;BME280;32113;42.012;24.870;2023-12-07T06:37:31;98750.56;;;8.44;77.94
46412;BME280;32113;42.012;24.870;2023-12-07T06:39:57;98745.41;;;8.49;77.97
46412;BME280;32113;42.012;24.870;2023-12-07T06:42:24;98742.84;;;8.52;77.85
46412;BME280;32113;42.012;24.870;2023-12-07T06:44:49;98741.13;;;8.60;77.66
46412;BME280;32113;42.012;24.870;2023-12-07T06:47:15;98744.50;;;8.67;77.29
46412;BME280;32113;42.012;24.870;2023-12-07T06:49:41;98744.44;;;8.68;77.56
46412;BME280;32113;42.012;24.870;2023-12-07T06:52:06;98745.31;;;8.67;77.79
46412;BME280;32113;42.012;24.870;2023-12-07T06:54:33;98745.28;;;8.74;77.58
46412;BME280;32113;42.012;24.870;2023-12-07T06:56:58;98752.06;;;8.78;77.71
46412;BME280;32113;42.012;24.870;2023-12-07T06:59:24;98751.16;;;8.88;77.72
46412;BME280;32113;42.012;24.870;2023-12-07T07:01:49;98746.03;;;8.88;76.77
46412;BME280;32113;42.012;24.870;2023-12-07T07:04:15;98752.81;;;8.91;76.55
46412;BME280;32113;42.012;24.870;2023-12-07T07:06:41;98756.19;;;8.96;77.04
46412;BME280;32113;42.012;24.870;2023-12-07T07:09:07;98757.78;;;9.10;76.90
46412;BME280;32113;42.012;24.870;2023-12-07T07:11:32;98753.41;;;9.21;76.00
46412;BME280;32113;42.012;24.870;2023-12-07T07:13:59;98752.50;;;9.27;75.33
46412;BME280;32113;42.012;24.870;2023-12-07T07:16:25;98760.13;;;9.33;74.17
46412;BME280;32113;42.012;24.870;2023-12-07T07:18:50;98761.75;;;9.40;73.02
46412;BME280;32113;42.012;24.870;2023-12-07T07:21:16;98760.03;;;9.39;71.95
46412;BME280;32113;42.012;24.870;2023-12-07T07:23:41;98760.72;;;9.55;71.86
46412;BME280;32113;42.012;24.870;2023-12-07T07:26:07;98759.16;;;9.43;71.10
46412;BME280;32113;42.012;24.870;2023-12-07T07:28:33;98753.09;;;9.52;71.13
46412;BME280;32113;42.012;24.870;2023-12-07T07:30:59;98753.00;;;9.60;70.62
46412;BME280;32113;42.012;24.870;2023-12-07T07:33:25;98761.50;;;9.65;71.63
46412;BME280;32113;42.012;24.870;2023-12-07T07:35:50;98763.91;;;9.78;72.51
46412;BME280;32113;42.012;24.870;2023-12-07T07:38:16;98762.09;;;9.86;72.99
46412;BME280;32113;42.012;24.870;2023-12-07T07:40:42;98761.03;;;10.04;71.97
46412;BME280;32113;42.012;24.870;2023-12-07T07:43:07;98765.22;;;10.10;72.38
46412;BME280;32113;42.012;24.870;2023-12-07T07:45:33;98768.50;;;10.21;72.52
46412;BME280;32113;42.012;24.870;2023-12-07T07:47:58;98765.78;;;10.32;72.47
46412;BME280;32113;42.012;24.870;2023-12-07T07:50:24;98774.19;;;10.45;71.61
46412;BME280;32113;42.012;24.870;2023-12-07T07:52:49;98777.50;;;10.54;71.16
46412;BME280;32113;42.012;24.870;2023-12-07T07:55:14;98780.84;;;10.59;70.42
46412;BME280;32113;42.012;24.870;2023-12-07T07:57:40;98781.63;;;10.64;70.47
46412;BME280;32113;42.012;24.870;2023-12-07T08:00:06;98776.44;;;10.67;69.70
46412;BME280;32113;42.012;24.870;2023-12-07T08:02:33;98784.84;;;10.77;69.09
46412;BME280;32113;42.012;24.870;2023-12-07T08:04:59;98785.59;;;10.82;67.21
46412;BME280;32113;42.012;24.870;2023-12-07T08:07:25;98783.03;;;10.84;66.76
46412;BME280;32113;42.012;24.870;2023-12-07T08:09:50;98785.59;;;10.84;66.83
46412;BME280;32113;42.012;24.870;2023-12-07T08:12:16;98784.81;;;10.78;67.00
46412;BME280;32113;42.012;24.870;2023-12-07T08:14:41;98778.75;;;10.84;67.37
46412;BME280;32113;42.012;24.870;2023-12-07T08:17:09;98788.88;;;10.92;66.50
46412;BME280;32113;42.012;24.870;2023-12-07T08:19:34;98783.72;;;10.94;66.80
46412;BME280;32113;42.012;24.870;2023-12-07T08:22:00;98793.13;;;10.95;66.50
46412;BME280;32113;42.012;24.870;2023-12-07T08:24:25;98788.75;;;11.01;66.40
46412;BME280;32113;42.012;24.870;2023-12-07T08:26:51;98788.66;;;11.06;66.28
46412;BME280;32113;42.012;24.870;2023-12-07T08:29:16;98785.13;;;11.13;65.94
46412;BME280;32113;42.012;24.870;2023-12-07T08:31:42;98780.81;;;11.14;66.45
46412;BME280;32113;42.012;24.870;2023-12-07T08:34:07;98785.91;;;11.17;66.76
46412;BME280;32113;42.012;24.870;2023-12-07T08:36:33;98791.81;;;11.21;67.27
46412;BME280;32113;42.012;24.870;2023-12-07T08:38:59;98782.34;;;11.26;66.56
46412;BME280;32113;42.012;24.870;2023-12-07T08:41:25;98788.19;;;11.33;66.36
46412;BME280;32113;42.012;24.870;2023-12-07T08:43:50;98787.31;;;11.35;66.61
46412;BME280;32113;42.012;24.870;2023-12-07T08:46:16;98789.91;;;11.34;67.40
46412;BME280;32113;42.012;24.870;2023-12-07T08:48:41;98791.41;;;11.47;67.69
46412;BME280;32113;42.012;24.870;2023-12-07T08:51:08;98794.75;;;11.51;67.51
46412;BME280;32113;42.012;24.870;2023-12-07T08:53:34;98798.97;;;11.55;66.86
46412;BME280;32113;42.012;24.870;2023-12-07T08:56:01;98800.53;;;11.62;65.87
46412;BME280;32113;42.012;24.870;2023-12-07T08:58:26;98801.34;;;11.66;66.42
46412;BME280;32113;42.012;24.870;2023-12-07T09:00:52;98798.78;;;11.64;66.19
46412;BME280;32113;42.012;24.870;2023-12-07T09:03:18;98800.44;;;11.67;65.86
46412;BME280;32113;42.012;24.870;2023-12-07T09:05:43;98796.91;;;11.73;65.42
46412;BME280;32113;42.012;24.870;2023-12-07T09:08:09;98791.69;;;11.77;65.11
46412;BME280;32113;42.012;24.870;2023-12-07T09:10:35;98785.59;;;11.81;64.68
46412;BME280;32113;42.012;24.870;2023-12-07T09:13:00;98785.59;;;11.83;65.37
46412;BME280;32113;42.012;24.870;2023-12-07T09:15:26;98785.44;;;11.89;66.04
46412;BME280;32113;42.012;24.870;2023-12-07T09:17:51;98783.63;;;11.94;66.00
46412;BME280;32113;42.012;24.870;2023-12-07T09:20:17;98783.47;;;12.02;65.56
46412;BME280;32113;42.012;24.870;2023-12-07T09:22:44;98773.09;;;12.08;65.43
46412;BME280;32113;42.012;24.870;2023-12-07T09:25:10;98777.22;;;12.16;64.41
46412;BME280;32113;42.012;24.870;2023-12-07T09:27:37;98766.91;;;12.17;63.87
46412;BME280;32113;42.012;24.870;2023-12-07T09:30:07;98770.16;;;12.27;64.05
46412;BME280;32113;42.012;24.870;2023-12-07T09:32:36;98767.38;;;12.37;63.77
46412;BME280;32113;42.012;24.870;2023-12-07T09:35:07;98763.41;;;12.59;63.63
46412;BME280;32113;42.012;24.870;2023-12-07T09:37:34;98762.69;;;12.91;62.43
46412;BME280;32113;42.012;24.870;2023-12-07T09:40:00;98759.81;;;13.03;62.07
46412;BME280;32113;42.012;24.870;2023-12-07T09:42:26;98751.00;;;13.12;60.94
46412;BME280;32113;42.012;24.870;2023-12-07T09:44:52;98751.06;;;13.09;61.04
46412;BME280;32113;42.012;24.870;2023-12-07T09:47:17;98748.59;;;13.06;61.53
46412;BME280;32113;42.012;24.870;2023-12-07T09:49:44;98752.22;;;12.97;62.21
46412;BME280;32113;42.012;24.870;2023-12-07T09:52:10;98754.75;;;12.98;61.23
46412;BME280;32113;42.012;24.870;2023-12-07T09:54:40;98746.31;;;12.93;61.41
46412;BME280;32113;42.012;24.870;2023-12-07T09:57:06;98753.25;;;12.91;61.47
46412;BME280;32113;42.012;24.870;2023-12-07T09:59:31;98755.81;;;12.91;61.31
46412;BME280;32113;42.012;24.870;2023-12-07T10:01:57;98757.56;;;12.89;61.72
46412;BME280;32113;42.012;24.870;2023-12-07T10:04:23;98758.56;;;12.83;61.56
46412;BME280;32113;42.012;24.870;2023-12-07T10:06:53;98751.03;;;12.74;61.89
46412;BME280;32113;42.012;24.870;2023-12-07T10:09:19;98755.56;;;12.66;62.41
46412;BME280;32113;42.012;24.870;2023-12-07T10:11:47;98747.00;;;12.64;62.60
46412;BME280;32113;42.012;24.870;2023-12-07T10:14:12;98749.72;;;12.59;63.91
46412;BME280;32113;42.012;24.870;2023-12-07T10:16:38;98753.16;;;12.58;64.11
46412;BME280;32113;42.012;24.870;2023-12-07T10:19:14;98751.41;;;12.58;64.61
46412;BME280;32113;42.012;24.870;2023-12-07T10:21:43;98741.19;;;12.55;64.53
46412;BME280;32113;42.012;24.870;2023-12-07T10:24:09;98741.16;;;12.57;65.50
46412;BME280;32113;42.012;24.870;2023-12-07T10:26:35;98732.69;;;12.53;66.70
46412;BME280;32113;42.012;24.870;2023-12-07T10:29:07;98736.72;;;12.64;66.01
46412;BME280;32113;42.012;24.870;2023-12-07T10:31:33;98728.19;;;12.61;66.15
46412;BME280;32113;42.012;24.870;2023-12-07T10:33:59;98726.50;;;12.60;66.28
46412;BME280;32113;42.012;24.870;2023-12-07T10:36:26;98722.91;;;12.66;66.50
46412;BME280;32113;42.012;24.870;2023-12-07T10:38:52;98728.88;;;12.70;66.29
46412;BME280;32113;42.012;24.870;2023-12-07T10:41:22;98727.97;;;12.71;65.98
46412;BME280;32113;42.012;24.870;2023-12-07T10:44:00;98722.84;;;12.69;66.42
46412;BME280;32113;42.012;24.870;2023-12-07T10:46:26;98726.13;;;12.76;66.02
46412;BME280;32113;42.012;24.870;2023-12-07T10:48:57;98723.56;;;12.76;66.09
46412;BME280;32113;42.012;24.870;2023-12-07T10:54:16;98716.56;;;12.81;65.92
46412;BME280;32113;42.012;24.870;2023-12-07T10:56:45;98718.38;;;12.78;66.09
46412;BME280;32113;42.012;24.870;2023-12-07T10:59:12;98721.06;;;12.71;66.31
46412;BME280;32113;42.012;24.870;2023-12-07T11:01:41;98717.69;;;12.71;66.22
46412;BME280;32113;42.012;24.870;2023-12-07T11:04:11;98722.72;;;12.74;66.32
46412;BME280;32113;42.012;24.870;2023-12-07T11:06:38;98716.94;;;12.66;66.43
46412;BME280;32113;42.012;24.870;2023-12-07T11:09:07;98713.41;;;12.70;66.02
46412;BME280;32113;42.012;24.870;2023-12-07T11:14:06;98707.50;;;12.65;64.98
46412;BME280;32113;42.012;24.870;2023-12-07T11:16:35;98706.75;;;12.61;65.79
46412;BME280;32113;42.012;24.870;2023-12-07T11:19:01;98705.84;;;12.62;64.78
46412;BME280;32113;42.012;24.870;2023-12-07T11:21:27;98702.53;;;12.58;64.65
46412;BME280;32113;42.012;24.870;2023-12-07T11:23:53;98700.06;;;12.54;64.93
46412;BME280;32113;42.012;24.870;2023-12-07T11:26:26;98709.41;;;12.58;65.29
46412;BME280;32113;42.012;24.870;2023-12-07T11:28:52;98700.81;;;12.59;64.63
46412;BME280;32113;42.012;24.870;2023-12-07T11:31:19;98705.97;;;12.59;64.43
46412;BME280;32113;42.012;24.870;2023-12-07T11:33:45;98701.59;;;12.61;63.42
46412;BME280;32113;42.012;24.870;2023-12-07T11:36:12;98702.47;;;12.61;63.14
46412;BME280;32113;42.012;24.870;2023-12-07T11:38:55;98698.13;;;12.62;63.58
46412;BME280;32113;42.012;24.870;2023-12-07T11:41:24;98697.22;;;12.65;63.20
46412;BME280;32113;42.012;24.870;2023-12-07T11:43:50;98698.03;;;12.67;63.61
46412;BME280;32113;42.012;24.870;2023-12-07T11:46:19;98695.44;;;12.68;63.40
46412;BME280;32113;42.012;24.870;2023-12-07T11:48:47;98703.91;;;12.72;63.57
46412;BME280;32113;42.012;24.870;2023-12-07T11:51:14;98703.94;;;12.70;63.79
46412;BME280;32113;42.012;24.870;2023-12-07T11:53:40;98704.84;;;12.69;63.36
46412;BME280;32113;42.012;24.870;2023-12-07T11:56:07;98695.47;;;12.67;62.89
46412;BME280;32113;42.012;24.870;2023-12-07T11:58:34;98701.56;;;12.63;63.06
46412;BME280;32113;42.012;24.870;2023-12-07T12:01:00;98692.94;;;12.65;63.72
46412;BME280;32113;42.012;24.870;2023-12-07T12:03:27;98696.34;;;12.66;63.51
46412;BME280;32113;42.012;24.870;2023-12-07T12:05:53;98695.47;;;12.67;63.41
46412;BME280;32113;42.012;24.870;2023-12-07T12:08:20;98697.16;;;12.68;62.84
46412;BME280;32113;42.012;24.870;2023-12-07T12:10:47;98691.94;;;12.71;62.15
46412;BME280;32113;42.012;24.870;2023-12-07T12:13:14;98695.28;;;12.74;61.17
46412;BME280;32113;42.012;24.870;2023-12-07T12:15:39;98691.09;;;12.70;62.01
46412;BME280;32113;42.012;24.870;2023-12-07T12:18:06;98687.72;;;12.68;61.96
46412;BME280;32113;42.012;24.870;2023-12-07T12:20:31;98689.66;;;12.58;62.04
46412;BME280;32113;42.012;24.870;2023-12-07T12:22:58;98688.13;;;12.51;61.95
46412;BME280;32113;42.012;24.870;2023-12-07T12:25:25;98691.50;;;12.53;62.21
46412;BME280;32113;42.012;24.870;2023-12-07T12:27:56;98681.19;;;12.55;62.48
46412;BME280;32113;42.012;24.870;2023-12-07T12:30:23;98675.13;;;12.56;62.19
46412;BME280;32113;42.012;24.870;2023-12-07T12:32:49;98680.34;;;12.53;63.03
46412;BME280;32113;42.012;24.870;2023-12-07T12:35:19;98683.84;;;12.50;63.19
46412;BME280;32113;42.012;24.870;2023-12-07T12:37:45;98674.41;;;12.51;63.52
46412;BME280;32113;42.012;24.870;2023-12-07T12:40:12;98672.75;;;12.48;63.35
46412;BME280;32113;42.012;24.870;2023-12-07T12:42:42;98671.03;;;12.48;63.82
46412;BME280;32113;42.012;24.870;2023-12-07T12:45:08;98677.78;;;12.53;63.59
46412;BME280;32113;42.012;24.870;2023-12-07T12:47:34;98677.84;;;12.51;62.93
46412;BME280;32113;42.012;24.870;2023-12-07T12:50:01;98672.72;;;12.50;63.01
46412;BME280;32113;42.012;24.870;2023-12-07T12:52:29;98676.09;;;12.52;63.00
46412;BME280;32113;42.012;24.870;2023-12-07T12:54:55;98670.13;;;12.51;63.03
46412;BME280;32113;42.012;24.870;2023-12-07T12:57:22;98671.78;;;12.54;63.68
46412;BME280;32113;42.012;24.870;2023-12-07T12:59:47;98674.38;;;12.52;63.42
46412;BME280;32113;42.012;24.870;2023-12-07T13:02:14;98682.91;;;12.53;63.97
46412;BME280;32113;42.012;24.870;2023-12-07T13:04:39;98682.84;;;12.56;63.02
46412;BME280;32113;42.012;24.870;2023-12-07T13:07:06;98675.19;;;12.53;63.59
46412;BME280;32113;42.012;24.870;2023-12-07T13:09:31;98681.28;;;12.50;64.86
46412;BME280;32113;42.012;24.870;2023-12-07T13:11:58;98676.13;;;12.50;65.01
46412;BME280;32113;42.012;24.870;2023-12-07T13:14:24;98682.16;;;12.49;64.45